KLM2901 OBBI-EHAM
Flight info
| Callsign | KLM2901 |
|---|---|
| Flight time | 6h 10m |
| Altitude | 34000 |
| Route | DCT BHR M444 DAVUS L602 GADSI/N0497F360 L602 ALPET L718 DEBNI DCT SEVKU L718 KABAN UL718 ULSAB UL614 GEM UT32 BUK UL602 MAKOL DCT ARGES DCT MEGIK/N0481F380 DCT PATAK DCT ODNEM DCT RAPET T843 DEMAB L604 RELBI L602 RKN RKN2A |
| Aircraft | B77W/H-SDE1E2E3FGHIJ2J3J4J5M1RWXY/LB1D1 |
Departure
| Time | 2026-04-28 10:49 |
|---|---|
| Airport | Bahrain International Airport (OBBI) |
Arrival
| Time | 2026-04-28 16:59 |
|---|---|
| Airport | Amsterdam Airport Schiphol (EHAM) |
| Time | Latitude | Longitude | Altitude | Speed | Heading |
|---|---|---|---|---|---|
| 2026-04-28 10:18 | 26.26702 | 50.63305 | 19 ft | 0 kts | 210° |
| 2026-04-28 10:40 | 26.26711 | 50.63311 | 19 ft | 3 kts | 206° |
| 2026-04-28 10:40 | 26.26730 | 50.63320 | 20 ft | 3 kts | 195° |
| 2026-04-28 10:40 | 26.26749 | 50.63324 | 23 ft | 3 kts | 180° |
| 2026-04-28 10:40 | 26.26769 | 50.63322 | 22 ft | 3 kts | 161° |
| 2026-04-28 10:41 | 26.26786 | 50.63313 | 23 ft | 3 kts | 137° |
| 2026-04-28 10:41 | 26.26794 | 50.63303 | 22 ft | 0 kts | 123° |
| 2026-04-28 10:41 | 26.26795 | 50.63303 | 22 ft | 0 kts | 123° |
| 2026-04-28 10:42 | 26.26794 | 50.63303 | 22 ft | 0 kts | 123° |
| 2026-04-28 10:43 | 26.26775 | 50.63336 | 26 ft | 11 kts | 123° |
| 2026-04-28 10:43 | 26.26771 | 50.63344 | 27 ft | 0 kts | 122° |
| 2026-04-28 10:44 | 26.26777 | 50.63363 | 33 ft | 5 kts | 56° |
| 2026-04-28 10:44 | 26.26813 | 50.63418 | 17 ft | 14 kts | 75° |
| 2026-04-28 10:44 | 26.26775 | 50.63546 | 17 ft | 21 kts | 122° |
| 2026-04-28 10:45 | 26.26679 | 50.63709 | 19 ft | 30 kts | 123° |
| 2026-04-28 10:45 | 26.26552 | 50.63927 | 20 ft | 37 kts | 123° |
| 2026-04-28 10:45 | 26.26396 | 50.64198 | 18 ft | 45 kts | 122° |
| 2026-04-28 10:45 | 26.26217 | 50.64516 | 17 ft | 51 kts | 122° |
| 2026-04-28 10:46 | 26.26041 | 50.64828 | 19 ft | 30 kts | 111° |
| 2026-04-28 10:46 | 26.26035 | 50.64919 | 20 ft | 0 kts | 77° |
| 2026-04-28 10:46 | 26.26035 | 50.64921 | 20 ft | 3 kts | 77° |
| 2026-04-28 10:46 | 26.26057 | 50.64966 | 20 ft | 10 kts | 50° |
| 2026-04-28 10:47 | 26.26131 | 50.64986 | 24 ft | 14 kts | 335° |
| 2026-04-28 10:47 | 26.26207 | 50.64880 | 19 ft | 22 kts | 302° |
| 2026-04-28 10:47 | 26.26247 | 50.64812 | 19 ft | 0 kts | 303° |
| 2026-04-28 10:48 | 26.26247 | 50.64811 | 19 ft | 2 kts | 303° |
| 2026-04-28 10:48 | 26.26370 | 50.64601 | 17 ft | 82 kts | 303° |
| 2026-04-28 10:48 | 26.26882 | 50.63721 | 24 ft | 187 kts | 304° |
| 2026-04-28 10:49 | 26.27696 | 50.62331 | 721 ft | 224 kts | 304° |
| 2026-04-28 10:49 | 26.28581 | 50.60896 | 2418 ft | 226 kts | 306° |
| 2026-04-28 10:49 | 26.29815 | 50.59615 | 3382 ft | 271 kts | 332° |
| 2026-04-28 10:49 | 26.31689 | 50.59215 | 4214 ft | 278 kts | 5° |
| 2026-04-28 10:50 | 26.33580 | 50.59872 | 4112 ft | 287 kts | 30° |
| 2026-04-28 10:50 | 26.34724 | 50.60583 | 4090 ft | 281 kts | 21° |
| 2026-04-28 10:50 | 26.37235 | 50.60671 | 4112 ft | 275 kts | 340° |
| 2026-04-28 10:50 | 26.39116 | 50.60091 | 4775 ft | 285 kts | 345° |
| 2026-04-28 10:51 | 26.41054 | 50.59580 | 5556 ft | 291 kts | 339° |
| 2026-04-28 10:51 | 26.42992 | 50.58847 | 6457 ft | 294 kts | 336° |
| 2026-04-28 10:51 | 26.44918 | 50.58076 | 7376 ft | 294 kts | 336° |
| 2026-04-28 10:51 | 26.46835 | 50.57324 | 8265 ft | 296 kts | 336° |
| 2026-04-28 10:52 | 26.48800 | 50.56576 | 9131 ft | 299 kts | 336° |
| 2026-04-28 10:52 | 26.50772 | 50.55841 | 9970 ft | 302 kts | 336° |
| 2026-04-28 10:52 | 26.52792 | 50.55092 | 10660 ft | 312 kts | 336° |
| 2026-04-28 10:52 | 26.54939 | 50.54292 | 10898 ft | 338 kts | 336° |
| 2026-04-28 10:53 | 26.57258 | 50.53415 | 11099 ft | 364 kts | 337° |
| 2026-04-28 10:53 | 26.59716 | 50.52488 | 11631 ft | 378 kts | 337° |
| 2026-04-28 10:53 | 26.62206 | 50.51552 | 12408 ft | 384 kts | 337° |
| 2026-04-28 10:53 | 26.64754 | 50.50593 | 13333 ft | 386 kts | 337° |
| 2026-04-28 10:54 | 26.67310 | 50.49616 | 14209 ft | 386 kts | 335° |
| 2026-04-28 10:54 | 26.69713 | 50.48354 | 14899 ft | 388 kts | 326° |
| 2026-04-28 10:54 | 26.71975 | 50.46682 | 15654 ft | 390 kts | 319° |
| 2026-04-28 10:54 | 26.74026 | 50.44687 | 16424 ft | 390 kts | 312° |
| 2026-04-28 10:55 | 26.75992 | 50.42562 | 17237 ft | 393 kts | 312° |
| 2026-04-28 10:55 | 26.77942 | 50.40466 | 18057 ft | 395 kts | 312° |
| 2026-04-28 10:55 | 26.79944 | 50.38341 | 18721 ft | 399 kts | 312° |
| 2026-04-28 10:55 | 26.81985 | 50.36185 | 19277 ft | 406 kts | 312° |
| 2026-04-28 10:56 | 26.84062 | 50.33990 | 19829 ft | 411 kts | 311° |
| 2026-04-28 10:56 | 26.86139 | 50.31792 | 20422 ft | 416 kts | 311° |
| 2026-04-28 10:56 | 26.88259 | 50.29547 | 21020 ft | 421 kts | 311° |
| 2026-04-28 10:56 | 26.90403 | 50.27275 | 21593 ft | 426 kts | 311° |
| 2026-04-28 10:57 | 26.92573 | 50.24976 | 22205 ft | 430 kts | 310° |
| 2026-04-28 10:57 | 26.94738 | 50.22681 | 22778 ft | 434 kts | 310° |
| 2026-04-28 10:57 | 26.96955 | 50.20327 | 23319 ft | 438 kts | 309° |
| 2026-04-28 10:57 | 26.99176 | 50.17968 | 23742 ft | 443 kts | 309° |
| 2026-04-28 10:58 | 27.01409 | 50.15597 | 24176 ft | 447 kts | 309° |
| 2026-04-28 10:58 | 27.03684 | 50.13180 | 24661 ft | 450 kts | 309° |
| 2026-04-28 10:58 | 27.05221 | 50.11596 | 24996 ft | 454 kts | 311° |
| 2026-04-28 10:58 | 27.08505 | 50.08616 | 25614 ft | 461 kts | 315° |
| 2026-04-28 10:59 | 27.10239 | 50.07120 | 25934 ft | 464 kts | 315° |
| 2026-04-28 10:59 | 27.12790 | 50.04937 | 26358 ft | 468 kts | 315° |
| 2026-04-28 10:59 | 27.16244 | 50.01961 | 26930 ft | 472 kts | 314° |
| 2026-04-28 10:59 | 27.18854 | 49.99686 | 27354 ft | 475 kts | 314° |
| 2026-04-28 11:00 | 27.20591 | 49.98163 | 27654 ft | 477 kts | 314° |
| 2026-04-28 11:00 | 27.23219 | 49.95851 | 28034 ft | 480 kts | 314° |
| 2026-04-28 11:00 | 27.25836 | 49.93545 | 28412 ft | 483 kts | 314° |
| 2026-04-28 11:00 | 27.28491 | 49.91207 | 28782 ft | 486 kts | 313° |
| 2026-04-28 11:01 | 27.31165 | 49.88851 | 29140 ft | 489 kts | 313° |
| 2026-04-28 11:01 | 27.33861 | 49.86476 | 29471 ft | 492 kts | 313° |
| 2026-04-28 11:01 | 27.36549 | 49.84107 | 29806 ft | 494 kts | 313° |
| 2026-04-28 11:01 | 27.39260 | 49.81719 | 30205 ft | 493 kts | 313° |
| 2026-04-28 11:02 | 27.41950 | 49.79352 | 30793 ft | 486 kts | 313° |
| 2026-04-28 11:02 | 27.44597 | 49.77025 | 31485 ft | 478 kts | 313° |
| 2026-04-28 11:02 | 27.47182 | 49.74746 | 32115 ft | 472 kts | 312° |
| 2026-04-28 11:02 | 27.49753 | 49.72474 | 32593 ft | 468 kts | 312° |
| 2026-04-28 11:03 | 27.52322 | 49.70197 | 33030 ft | 465 kts | 312° |
| 2026-04-28 11:03 | 27.54860 | 49.67946 | 33432 ft | 463 kts | 312° |
| 2026-04-28 11:03 | 27.57387 | 49.65703 | 33780 ft | 461 kts | 312° |
| 2026-04-28 11:04 | 27.62449 | 49.61206 | 33790 ft | 465 kts | 311° |
| 2026-04-28 11:04 | 27.67517 | 49.56713 | 33758 ft | 460 kts | 311° |
| 2026-04-28 11:05 | 27.72533 | 49.52251 | 33753 ft | 459 kts | 311° |
| 2026-04-28 11:05 | 27.77547 | 49.47778 | 33800 ft | 463 kts | 311° |
| 2026-04-28 11:05 | 27.80087 | 49.45510 | 34040 ft | 463 kts | 311° |
| 2026-04-28 11:06 | 27.82611 | 49.43260 | 34348 ft | 461 kts | 311° |
| 2026-04-28 11:06 | 27.85094 | 49.41045 | 34664 ft | 458 kts | 311° |
| 2026-04-28 11:06 | 27.87597 | 49.38809 | 34929 ft | 457 kts | 311° |
| 2026-04-28 11:06 | 27.90095 | 49.36573 | 35173 ft | 457 kts | 311° |
| 2026-04-28 11:07 | 27.92612 | 49.34357 | 35414 ft | 460 kts | 314° |
| 2026-04-28 11:07 | 27.95283 | 49.32368 | 35650 ft | 466 kts | 319° |
| 2026-04-28 11:07 | 27.98134 | 49.30571 | 35702 ft | 475 kts | 323° |
| 2026-04-28 11:08 | 28.04284 | 49.27590 | 35735 ft | 479 kts | 327° |
| 2026-04-28 11:08 | 28.10403 | 49.24742 | 35734 ft | 475 kts | 327° |
| 2026-04-28 11:09 | 28.16490 | 49.21846 | 35768 ft | 473 kts | 326° |
| 2026-04-28 11:09 | 28.22538 | 49.18945 | 35740 ft | 474 kts | 326° |
| 2026-04-28 11:10 | 28.28619 | 49.16000 | 35734 ft | 474 kts | 326° |
| 2026-04-28 11:10 | 28.34653 | 49.13029 | 35759 ft | 475 kts | 325° |
| 2026-04-28 11:11 | 28.40599 | 49.09849 | 35731 ft | 466 kts | 319° |
| 2026-04-28 11:11 | 28.45920 | 49.05859 | 35721 ft | 459 kts | 315° |
| 2026-04-28 11:12 | 28.51215 | 49.01743 | 35732 ft | 461 kts | 315° |
| 2026-04-28 11:12 | 28.56533 | 48.97645 | 35743 ft | 462 kts | 315° |
| 2026-04-28 11:13 | 28.61856 | 48.93563 | 35737 ft | 462 kts | 315° |
| 2026-04-28 11:13 | 28.67193 | 48.89468 | 35725 ft | 462 kts | 315° |
| 2026-04-28 11:14 | 28.72519 | 48.85372 | 35739 ft | 462 kts | 315° |
| 2026-04-28 11:14 | 28.77858 | 48.81262 | 35731 ft | 461 kts | 315° |
| 2026-04-28 11:15 | 28.83149 | 48.77190 | 35729 ft | 461 kts | 315° |
| 2026-04-28 11:15 | 28.88471 | 48.73111 | 35757 ft | 460 kts | 315° |
| 2026-04-28 11:16 | 28.93769 | 48.69044 | 35743 ft | 460 kts | 315° |
| 2026-04-28 11:16 | 28.99100 | 48.64944 | 35719 ft | 459 kts | 315° |
| 2026-04-28 11:17 | 29.04362 | 48.60891 | 35730 ft | 459 kts | 315° |
| 2026-04-28 11:17 | 29.09651 | 48.56811 | 35731 ft | 458 kts | 315° |
| 2026-04-28 11:18 | 29.14932 | 48.52732 | 35736 ft | 459 kts | 315° |
| 2026-04-28 11:18 | 29.20215 | 48.48647 | 35741 ft | 459 kts | 315° |
| 2026-04-28 11:19 | 29.25530 | 48.44532 | 35735 ft | 459 kts | 315° |
| 2026-04-28 11:19 | 29.30799 | 48.40447 | 35734 ft | 459 kts | 315° |
| 2026-04-28 11:20 | 29.36106 | 48.36328 | 35742 ft | 459 kts | 315° |
| 2026-04-28 11:20 | 29.41390 | 48.32222 | 35751 ft | 460 kts | 315° |
| 2026-04-28 11:21 | 29.46839 | 48.28302 | 35746 ft | 466 kts | 319° |
| 2026-04-28 11:21 | 29.52491 | 48.24621 | 35745 ft | 467 kts | 319° |
| 2026-04-28 11:22 | 29.58124 | 48.20954 | 35744 ft | 467 kts | 319° |
| 2026-04-28 11:22 | 29.63769 | 48.17248 | 35745 ft | 466 kts | 319° |
| 2026-04-28 11:23 | 29.69371 | 48.13553 | 35741 ft | 466 kts | 319° |
| 2026-04-28 11:23 | 29.74999 | 48.09834 | 35748 ft | 466 kts | 319° |
| 2026-04-28 11:24 | 29.80593 | 48.06134 | 35744 ft | 465 kts | 319° |
| 2026-04-28 11:24 | 29.86199 | 48.02423 | 35731 ft | 465 kts | 319° |
| 2026-04-28 11:25 | 29.91796 | 47.98712 | 35740 ft | 465 kts | 319° |
| 2026-04-28 11:25 | 29.97420 | 47.94978 | 35724 ft | 465 kts | 318° |
| 2026-04-28 11:26 | 30.02533 | 47.90712 | 35712 ft | 448 kts | 308° |
| 2026-04-28 11:26 | 30.06874 | 47.85696 | 35729 ft | 438 kts | 301° |
| 2026-04-28 11:27 | 30.10840 | 47.80366 | 35698 ft | 438 kts | 301° |
| 2026-04-28 11:27 | 30.14826 | 47.74994 | 35697 ft | 440 kts | 301° |
| 2026-04-28 11:28 | 30.18831 | 47.69626 | 35697 ft | 441 kts | 301° |
| 2026-04-28 11:28 | 30.22827 | 47.64278 | 35703 ft | 441 kts | 301° |
| 2026-04-28 11:29 | 30.26855 | 47.58883 | 35714 ft | 442 kts | 301° |
| 2026-04-28 11:29 | 30.30866 | 47.53505 | 35711 ft | 442 kts | 301° |
| 2026-04-28 11:30 | 30.34875 | 47.48119 | 35720 ft | 442 kts | 301° |
| 2026-04-28 11:30 | 30.40869 | 47.40054 | 35705 ft | 441 kts | 301° |
| 2026-04-28 11:31 | 30.44883 | 47.34643 | 35699 ft | 441 kts | 301° |
| 2026-04-28 11:31 | 30.48871 | 47.29258 | 35693 ft | 441 kts | 301° |
| 2026-04-28 11:32 | 30.52861 | 47.23864 | 35676 ft | 441 kts | 301° |
| 2026-04-28 11:32 | 30.56847 | 47.18469 | 35679 ft | 440 kts | 301° |
| 2026-04-28 11:33 | 30.60818 | 47.13085 | 35673 ft | 440 kts | 301° |
| 2026-04-28 11:33 | 30.64795 | 47.07683 | 35674 ft | 441 kts | 301° |
| 2026-04-28 11:34 | 30.68792 | 47.02244 | 35673 ft | 441 kts | 301° |
| 2026-04-28 11:34 | 30.72751 | 46.96851 | 35672 ft | 441 kts | 301° |
| 2026-04-28 11:35 | 30.76735 | 46.91416 | 35685 ft | 442 kts | 301° |
| 2026-04-28 11:35 | 30.80725 | 46.85965 | 35685 ft | 443 kts | 301° |
| 2026-04-28 11:36 | 30.84710 | 46.80513 | 35688 ft | 443 kts | 301° |
| 2026-04-28 11:36 | 30.88715 | 46.75025 | 35684 ft | 444 kts | 301° |
| 2026-04-28 11:37 | 30.92698 | 46.69562 | 35687 ft | 444 kts | 301° |
| 2026-04-28 11:37 | 30.96700 | 46.64064 | 35696 ft | 444 kts | 301° |
| 2026-04-28 11:38 | 31.00700 | 46.58561 | 35715 ft | 445 kts | 302° |
| 2026-04-28 11:38 | 31.04708 | 46.53038 | 35709 ft | 446 kts | 301° |
| 2026-04-28 11:39 | 31.08704 | 46.47524 | 35710 ft | 447 kts | 301° |
| 2026-04-28 11:39 | 31.12724 | 46.41969 | 35735 ft | 448 kts | 301° |
| 2026-04-28 11:40 | 31.16739 | 46.36414 | 35720 ft | 449 kts | 301° |
| 2026-04-28 11:40 | 31.20886 | 46.30875 | 35725 ft | 455 kts | 306° |
| 2026-04-28 11:41 | 31.25642 | 46.25951 | 35765 ft | 461 kts | 310° |
| 2026-04-28 11:41 | 31.30562 | 46.21068 | 35737 ft | 462 kts | 310° |
| 2026-04-28 11:42 | 31.35430 | 46.16207 | 35742 ft | 462 kts | 310° |
| 2026-04-28 11:42 | 31.40311 | 46.11300 | 35759 ft | 461 kts | 310° |
| 2026-04-28 11:43 | 31.45173 | 46.06395 | 35748 ft | 461 kts | 310° |
| 2026-04-28 11:43 | 31.50003 | 46.01515 | 35754 ft | 461 kts | 310° |
| 2026-04-28 11:44 | 31.54873 | 45.96588 | 35779 ft | 461 kts | 310° |
| 2026-04-28 11:44 | 31.59721 | 45.91677 | 35776 ft | 462 kts | 310° |
| 2026-04-28 11:45 | 31.64606 | 45.86721 | 35781 ft | 463 kts | 310° |
| 2026-04-28 11:45 | 31.69480 | 45.81769 | 35781 ft | 465 kts | 310° |
| 2026-04-28 11:46 | 31.74364 | 45.76801 | 35794 ft | 465 kts | 310° |
| 2026-04-28 11:46 | 31.79244 | 45.71831 | 35801 ft | 465 kts | 310° |
| 2026-04-28 11:47 | 31.83349 | 45.67643 | 35815 ft | 466 kts | 311° |
| 2026-04-28 11:47 | 31.88227 | 45.62661 | 35814 ft | 466 kts | 311° |
| 2026-04-28 11:48 | 31.93112 | 45.57664 | 35800 ft | 466 kts | 310° |
| 2026-04-28 11:48 | 31.98015 | 45.52642 | 35813 ft | 466 kts | 310° |
| 2026-04-28 11:49 | 32.02876 | 45.47655 | 35824 ft | 465 kts | 310° |
| 2026-04-28 11:49 | 32.07772 | 45.42624 | 35825 ft | 465 kts | 310° |
| 2026-04-28 11:50 | 32.12646 | 45.37607 | 35835 ft | 466 kts | 311° |
| 2026-04-28 11:50 | 32.17523 | 45.32582 | 35840 ft | 466 kts | 311° |
| 2026-04-28 11:51 | 32.22397 | 45.27552 | 35866 ft | 467 kts | 311° |
| 2026-04-28 11:51 | 32.27298 | 45.22485 | 35846 ft | 468 kts | 311° |
| 2026-04-28 11:52 | 32.32196 | 45.17416 | 35852 ft | 469 kts | 311° |
| 2026-04-28 11:52 | 32.37119 | 45.12313 | 35842 ft | 470 kts | 311° |
| 2026-04-28 11:53 | 32.42003 | 45.07242 | 35841 ft | 470 kts | 311° |
| 2026-04-28 11:53 | 32.46930 | 45.02120 | 35867 ft | 470 kts | 311° |
| 2026-04-28 11:54 | 32.51833 | 44.97014 | 35861 ft | 471 kts | 312° |
| 2026-04-28 11:54 | 32.56766 | 44.91869 | 35856 ft | 472 kts | 312° |
| 2026-04-28 11:55 | 32.61717 | 44.86698 | 35849 ft | 473 kts | 312° |
| 2026-04-28 11:55 | 32.66638 | 44.81550 | 35856 ft | 473 kts | 312° |
| 2026-04-28 11:56 | 32.71573 | 44.76379 | 35856 ft | 474 kts | 312° |
| 2026-04-28 11:56 | 32.76495 | 44.71214 | 35854 ft | 473 kts | 312° |
| 2026-04-28 11:57 | 32.81438 | 44.66020 | 35856 ft | 473 kts | 312° |
| 2026-04-28 11:57 | 32.86347 | 44.60852 | 35879 ft | 473 kts | 312° |
| 2026-04-28 11:58 | 32.91295 | 44.55635 | 35864 ft | 473 kts | 312° |
| 2026-04-28 11:58 | 32.96200 | 44.50456 | 35858 ft | 473 kts | 312° |
| 2026-04-28 11:59 | 33.01118 | 44.45254 | 35857 ft | 472 kts | 312° |
| 2026-04-28 11:59 | 33.06011 | 44.40072 | 35884 ft | 472 kts | 312° |
| 2026-04-28 12:00 | 33.10916 | 44.34868 | 35874 ft | 472 kts | 312° |
| 2026-04-28 12:00 | 33.16096 | 44.29965 | 35877 ft | 481 kts | 322° |
| 2026-04-28 12:01 | 33.22196 | 44.26549 | 35855 ft | 494 kts | 336° |
| 2026-04-28 12:01 | 33.28873 | 44.24332 | 35862 ft | 497 kts | 339° |
| 2026-04-28 12:02 | 33.35564 | 44.22233 | 35876 ft | 498 kts | 339° |
| 2026-04-28 12:02 | 33.42228 | 44.20091 | 35883 ft | 499 kts | 339° |
| 2026-04-28 12:03 | 33.48955 | 44.17879 | 35868 ft | 500 kts | 339° |
| 2026-04-28 12:03 | 33.55645 | 44.15660 | 35857 ft | 500 kts | 339° |
| 2026-04-28 12:04 | 33.62347 | 44.13435 | 35854 ft | 501 kts | 339° |
| 2026-04-28 12:04 | 33.69038 | 44.11213 | 35864 ft | 501 kts | 339° |
| 2026-04-28 12:05 | 33.75761 | 44.08978 | 35867 ft | 500 kts | 339° |
| 2026-04-28 12:05 | 33.82493 | 44.06736 | 35855 ft | 500 kts | 339° |
| 2026-04-28 12:06 | 33.89188 | 44.04502 | 35859 ft | 500 kts | 339° |
| 2026-04-28 12:06 | 33.95866 | 44.02271 | 35875 ft | 500 kts | 339° |
| 2026-04-28 12:07 | 34.02591 | 44.00020 | 35863 ft | 500 kts | 339° |
| 2026-04-28 12:07 | 34.09267 | 43.97782 | 35868 ft | 499 kts | 339° |
| 2026-04-28 12:08 | 34.15983 | 43.95526 | 35858 ft | 499 kts | 339° |
| 2026-04-28 12:08 | 34.22638 | 43.93288 | 35857 ft | 498 kts | 339° |
| 2026-04-28 12:09 | 34.29296 | 43.91045 | 35858 ft | 498 kts | 339° |
| 2026-04-28 12:09 | 34.35978 | 43.88789 | 35869 ft | 499 kts | 340° |
| 2026-04-28 12:10 | 34.42684 | 43.86522 | 35868 ft | 499 kts | 340° |
| 2026-04-28 12:10 | 34.49363 | 43.84261 | 35864 ft | 500 kts | 340° |
| 2026-04-28 12:11 | 34.56081 | 43.81981 | 35870 ft | 501 kts | 340° |
| 2026-04-28 12:11 | 34.62775 | 43.79708 | 35871 ft | 501 kts | 340° |
| 2026-04-28 12:12 | 34.69519 | 43.77413 | 35882 ft | 501 kts | 340° |
| 2026-04-28 12:12 | 34.76216 | 43.75130 | 35872 ft | 501 kts | 340° |
| 2026-04-28 12:13 | 34.82906 | 43.72846 | 35874 ft | 501 kts | 340° |
| 2026-04-28 12:13 | 34.89649 | 43.70540 | 35874 ft | 501 kts | 340° |
| 2026-04-28 12:14 | 34.96360 | 43.68240 | 35896 ft | 501 kts | 340° |
| 2026-04-28 12:14 | 35.03048 | 43.65944 | 35889 ft | 502 kts | 340° |
| 2026-04-28 12:15 | 35.09771 | 43.63633 | 35884 ft | 503 kts | 340° |
| 2026-04-28 12:15 | 35.16534 | 43.61304 | 35886 ft | 503 kts | 340° |
| 2026-04-28 12:16 | 35.23264 | 43.58982 | 35874 ft | 504 kts | 340° |
| 2026-04-28 12:16 | 35.30024 | 43.56647 | 35873 ft | 504 kts | 340° |
| 2026-04-28 12:17 | 35.35298 | 43.54822 | 35884 ft | 504 kts | 340° |
| 2026-04-28 12:17 | 35.40158 | 43.53137 | 35883 ft | 504 kts | 340° |
| 2026-04-28 12:18 | 35.46882 | 43.50803 | 35877 ft | 504 kts | 340° |
| 2026-04-28 12:18 | 35.53645 | 43.48452 | 35874 ft | 504 kts | 340° |
| 2026-04-28 12:19 | 35.60367 | 43.46111 | 35876 ft | 504 kts | 340° |
| 2026-04-28 12:19 | 35.67140 | 43.43748 | 35878 ft | 504 kts | 340° |
| 2026-04-28 12:20 | 35.73879 | 43.41392 | 35883 ft | 504 kts | 340° |
| 2026-04-28 12:20 | 35.80606 | 43.39037 | 35873 ft | 504 kts | 340° |
| 2026-04-28 12:21 | 35.87365 | 43.36666 | 35876 ft | 504 kts | 340° |
| 2026-04-28 12:21 | 35.94090 | 43.34303 | 35878 ft | 504 kts | 340° |
| 2026-04-28 12:22 | 36.00856 | 43.31921 | 35879 ft | 504 kts | 340° |
| 2026-04-28 12:22 | 36.07582 | 43.29548 | 35881 ft | 504 kts | 340° |
| 2026-04-28 12:23 | 36.14110 | 43.26529 | 35890 ft | 500 kts | 332° |
| 2026-04-28 12:23 | 36.20466 | 43.22961 | 35892 ft | 500 kts | 332° |
| 2026-04-28 12:24 | 36.26786 | 43.19408 | 35918 ft | 501 kts | 332° |
| 2026-04-28 12:24 | 36.33180 | 43.15861 | 35899 ft | 502 kts | 332° |
| 2026-04-28 12:25 | 36.39532 | 43.12352 | 35904 ft | 503 kts | 332° |
| 2026-04-28 12:25 | 36.45922 | 43.08816 | 35899 ft | 503 kts | 332° |
| 2026-04-28 12:26 | 36.52326 | 43.05261 | 35903 ft | 503 kts | 332° |
| 2026-04-28 12:26 | 36.58736 | 43.01696 | 35922 ft | 503 kts | 332° |
| 2026-04-28 12:27 | 36.65114 | 42.98142 | 35915 ft | 504 kts | 332° |
| 2026-04-28 12:27 | 36.71500 | 42.94576 | 35912 ft | 504 kts | 332° |
| 2026-04-28 12:28 | 36.77920 | 42.90989 | 35918 ft | 503 kts | 332° |
| 2026-04-28 12:28 | 36.84288 | 42.87477 | 35928 ft | 503 kts | 332° |
| 2026-04-28 12:29 | 36.93929 | 42.82179 | 35916 ft | 503 kts | 332° |
| 2026-04-28 12:30 | 37.00320 | 42.78649 | 35926 ft | 502 kts | 332° |
| 2026-04-28 12:30 | 37.06705 | 42.75112 | 35935 ft | 502 kts | 332° |
| 2026-04-28 12:31 | 37.13078 | 42.71576 | 35932 ft | 502 kts | 332° |
| 2026-04-28 12:31 | 37.19442 | 42.68039 | 35955 ft | 501 kts | 332° |
| 2026-04-28 12:32 | 37.25262 | 42.63399 | 35946 ft | 491 kts | 315° |
| 2026-04-28 12:32 | 37.29788 | 42.57145 | 35949 ft | 482 kts | 302° |
| 2026-04-28 12:33 | 37.33756 | 42.50327 | 35957 ft | 482 kts | 302° |
| 2026-04-28 12:33 | 37.37755 | 42.43552 | 35949 ft | 484 kts | 302° |
| 2026-04-28 12:34 | 37.41111 | 42.37938 | 35935 ft | 484 kts | 302° |
| 2026-04-28 12:34 | 37.45161 | 42.31156 | 35947 ft | 483 kts | 303° |
| 2026-04-28 12:35 | 37.49176 | 42.24413 | 35940 ft | 483 kts | 303° |
| 2026-04-28 12:35 | 37.53203 | 42.17638 | 35942 ft | 482 kts | 303° |
| 2026-04-28 12:36 | 37.57211 | 42.10878 | 35947 ft | 482 kts | 303° |
| 2026-04-28 12:36 | 37.61211 | 42.04119 | 35934 ft | 481 kts | 303° |
| 2026-04-28 12:37 | 37.65233 | 41.97311 | 35928 ft | 481 kts | 303° |
| 2026-04-28 12:37 | 37.69212 | 41.90559 | 35936 ft | 481 kts | 303° |
| 2026-04-28 12:38 | 37.73182 | 41.83807 | 35930 ft | 480 kts | 303° |
| 2026-04-28 12:38 | 37.77161 | 41.77030 | 35929 ft | 480 kts | 303° |
| 2026-04-28 12:39 | 37.81149 | 41.70226 | 35922 ft | 479 kts | 303° |
| 2026-04-28 12:39 | 37.85088 | 41.63492 | 35922 ft | 479 kts | 303° |
| 2026-04-28 12:40 | 37.89049 | 41.56705 | 35933 ft | 479 kts | 303° |
| 2026-04-28 12:40 | 37.92997 | 41.49926 | 35917 ft | 479 kts | 303° |
| 2026-04-28 12:41 | 37.96957 | 41.43112 | 35921 ft | 478 kts | 303° |
| 2026-04-28 12:41 | 38.00878 | 41.36352 | 35910 ft | 477 kts | 303° |
| 2026-04-28 12:42 | 38.04807 | 41.29564 | 35932 ft | 477 kts | 303° |
| 2026-04-28 12:42 | 38.08729 | 41.22771 | 35914 ft | 477 kts | 303° |
| 2026-04-28 12:43 | 38.12639 | 41.15944 | 35917 ft | 476 kts | 300° |
| 2026-04-28 12:43 | 38.15784 | 41.08651 | 35904 ft | 470 kts | 289° |
| 2026-04-28 12:44 | 38.18152 | 41.00894 | 35917 ft | 469 kts | 288° |
| 2026-04-28 12:44 | 38.20507 | 40.93185 | 35925 ft | 470 kts | 288° |
| 2026-04-28 12:45 | 38.22920 | 40.85409 | 35912 ft | 470 kts | 288° |
| 2026-04-28 12:45 | 38.25302 | 40.77673 | 35914 ft | 470 kts | 288° |
| 2026-04-28 12:46 | 38.27629 | 40.69913 | 35921 ft | 469 kts | 288° |
| 2026-04-28 12:46 | 38.29932 | 40.62179 | 35916 ft | 469 kts | 288° |
| 2026-04-28 12:47 | 38.32238 | 40.54441 | 35920 ft | 468 kts | 288° |
| 2026-04-28 12:47 | 38.34554 | 40.46659 | 35922 ft | 467 kts | 288° |
| 2026-04-28 12:48 | 38.36843 | 40.38948 | 35918 ft | 466 kts | 288° |
| 2026-04-28 12:48 | 38.39126 | 40.31234 | 35922 ft | 466 kts | 288° |
| 2026-04-28 12:49 | 38.41411 | 40.23491 | 35912 ft | 466 kts | 288° |
| 2026-04-28 12:49 | 38.43680 | 40.15780 | 35927 ft | 465 kts | 288° |
| 2026-04-28 12:50 | 38.45947 | 40.08056 | 35912 ft | 465 kts | 288° |
| 2026-04-28 12:50 | 38.48206 | 40.00335 | 35915 ft | 465 kts | 288° |
| 2026-04-28 12:51 | 38.50472 | 39.92563 | 35920 ft | 465 kts | 288° |
| 2026-04-28 12:51 | 38.52713 | 39.84863 | 35932 ft | 465 kts | 288° |
| 2026-04-28 12:52 | 38.54971 | 39.77079 | 35923 ft | 465 kts | 288° |
| 2026-04-28 12:52 | 38.57212 | 39.69328 | 35925 ft | 465 kts | 288° |
| 2026-04-28 12:53 | 38.59441 | 39.61599 | 35942 ft | 465 kts | 288° |
| 2026-04-28 12:53 | 38.61665 | 39.53867 | 35939 ft | 464 kts | 288° |
| 2026-04-28 12:54 | 38.63912 | 39.46090 | 35935 ft | 464 kts | 288° |
| 2026-04-28 12:54 | 38.66168 | 39.38369 | 35941 ft | 464 kts | 288° |
| 2026-04-28 12:55 | 38.68418 | 39.30633 | 35944 ft | 464 kts | 288° |
| 2026-04-28 12:55 | 38.70614 | 39.22859 | 35943 ft | 464 kts | 285° |
| 2026-04-28 12:56 | 38.71997 | 39.14867 | 35950 ft | 461 kts | 278° |
| 2026-04-28 12:56 | 38.73154 | 39.06749 | 35951 ft | 462 kts | 278° |
| 2026-04-28 12:57 | 38.74338 | 38.98709 | 35940 ft | 462 kts | 279° |
| 2026-04-28 12:57 | 38.75542 | 38.90600 | 35944 ft | 461 kts | 279° |
| 2026-04-28 12:58 | 38.76747 | 38.82554 | 35943 ft | 461 kts | 279° |
| 2026-04-28 12:58 | 38.77971 | 38.74458 | 35941 ft | 461 kts | 279° |
| 2026-04-28 12:59 | 38.79180 | 38.66412 | 35944 ft | 461 kts | 279° |
| 2026-04-28 12:59 | 38.80387 | 38.58321 | 35931 ft | 461 kts | 279° |
| 2026-04-28 13:00 | 38.81579 | 38.50291 | 35938 ft | 460 kts | 279° |
| 2026-04-28 13:00 | 38.82765 | 38.42248 | 35937 ft | 460 kts | 278° |
| 2026-04-28 13:01 | 38.83947 | 38.34200 | 35951 ft | 460 kts | 278° |
| 2026-04-28 13:01 | 38.85129 | 38.26108 | 35947 ft | 459 kts | 278° |
| 2026-04-28 13:02 | 38.86301 | 38.18046 | 35951 ft | 459 kts | 278° |
| 2026-04-28 13:02 | 38.87463 | 38.10019 | 35952 ft | 459 kts | 278° |
| 2026-04-28 13:03 | 38.88624 | 38.01950 | 35951 ft | 460 kts | 278° |
| 2026-04-28 13:03 | 38.89776 | 37.93905 | 35958 ft | 460 kts | 278° |
| 2026-04-28 13:04 | 38.90928 | 37.85815 | 35951 ft | 460 kts | 278° |
| 2026-04-28 13:04 | 38.92077 | 37.77712 | 35955 ft | 460 kts | 278° |
| 2026-04-28 13:05 | 38.93209 | 37.69679 | 35971 ft | 460 kts | 278° |
| 2026-04-28 13:05 | 38.94344 | 37.61581 | 35959 ft | 460 kts | 278° |
| 2026-04-28 13:06 | 38.95475 | 37.53475 | 35973 ft | 459 kts | 278° |
| 2026-04-28 13:06 | 38.96598 | 37.45388 | 35980 ft | 460 kts | 278° |
| 2026-04-28 13:07 | 38.97707 | 37.37347 | 35979 ft | 459 kts | 278° |
| 2026-04-28 13:07 | 38.98819 | 37.29254 | 35988 ft | 459 kts | 278° |
| 2026-04-28 13:08 | 38.99925 | 37.21153 | 35984 ft | 459 kts | 278° |
| 2026-04-28 13:08 | 39.01019 | 37.13099 | 35998 ft | 459 kts | 278° |
| 2026-04-28 13:09 | 39.02108 | 37.05042 | 35995 ft | 458 kts | 278° |
| 2026-04-28 13:09 | 39.03194 | 36.96957 | 35998 ft | 458 kts | 278° |
| 2026-04-28 13:10 | 39.04276 | 36.88866 | 36001 ft | 459 kts | 278° |
| 2026-04-28 13:10 | 39.04811 | 36.84845 | 36175 ft | 460 kts | 278° |
| 2026-04-28 13:10 | 39.05349 | 36.80793 | 36499 ft | 458 kts | 278° |
| 2026-04-28 13:10 | 39.05882 | 36.76763 | 36859 ft | 456 kts | 278° |
| 2026-04-28 13:11 | 39.06414 | 36.72740 | 37200 ft | 454 kts | 278° |
| 2026-04-28 13:11 | 39.06941 | 36.68734 | 37532 ft | 453 kts | 277° |
| 2026-04-28 13:11 | 39.07464 | 36.64751 | 37924 ft | 449 kts | 277° |
| 2026-04-28 13:12 | 39.08505 | 36.56794 | 38009 ft | 448 kts | 277° |
| 2026-04-28 13:12 | 39.09526 | 36.48941 | 37992 ft | 441 kts | 277° |
| 2026-04-28 13:13 | 39.10526 | 36.41210 | 37994 ft | 439 kts | 277° |
| 2026-04-28 13:13 | 39.11522 | 36.33463 | 37997 ft | 438 kts | 277° |
| 2026-04-28 13:14 | 39.12508 | 36.25747 | 37996 ft | 440 kts | 277° |
| 2026-04-28 13:14 | 39.13501 | 36.17948 | 37993 ft | 441 kts | 277° |
| 2026-04-28 13:15 | 39.14492 | 36.10122 | 37990 ft | 443 kts | 277° |
| 2026-04-28 13:15 | 39.15929 | 36.02382 | 37994 ft | 447 kts | 286° |
| 2026-04-28 13:16 | 39.18392 | 35.94982 | 38001 ft | 450 kts | 294° |
| 2026-04-28 13:16 | 39.21218 | 35.87808 | 37996 ft | 451 kts | 294° |
| 2026-04-28 13:17 | 39.24066 | 35.80583 | 37996 ft | 451 kts | 294° |
| 2026-04-28 13:17 | 39.26884 | 35.73350 | 37984 ft | 450 kts | 294° |
| 2026-04-28 13:18 | 39.29671 | 35.66145 | 38003 ft | 450 kts | 294° |
| 2026-04-28 13:18 | 39.32447 | 35.58942 | 37998 ft | 449 kts | 294° |
| 2026-04-28 13:19 | 39.35227 | 35.51709 | 38000 ft | 448 kts | 294° |
| 2026-04-28 13:19 | 39.37999 | 35.44483 | 38012 ft | 448 kts | 294° |
| 2026-04-28 13:20 | 39.40749 | 35.37297 | 38003 ft | 447 kts | 294° |
| 2026-04-28 13:20 | 39.43507 | 35.30075 | 38001 ft | 447 kts | 294° |
| 2026-04-28 13:21 | 39.45792 | 35.24075 | 38011 ft | 447 kts | 293° |
| 2026-04-28 13:21 | 39.48985 | 35.15673 | 38015 ft | 446 kts | 294° |
| 2026-04-28 13:22 | 39.51263 | 35.09665 | 38014 ft | 446 kts | 294° |
| 2026-04-28 13:22 | 39.53996 | 35.02439 | 38015 ft | 446 kts | 293° |
| 2026-04-28 13:23 | 39.56728 | 34.95202 | 38024 ft | 446 kts | 293° |
| 2026-04-28 13:23 | 39.59432 | 34.88018 | 38020 ft | 446 kts | 293° |
| 2026-04-28 13:24 | 39.62155 | 34.80768 | 38012 ft | 445 kts | 293° |
| 2026-04-28 13:24 | 39.64864 | 34.73536 | 38017 ft | 445 kts | 293° |
| 2026-04-28 13:25 | 39.67562 | 34.66317 | 38028 ft | 445 kts | 293° |
| 2026-04-28 13:25 | 39.70248 | 34.59111 | 38021 ft | 445 kts | 293° |
| 2026-04-28 13:26 | 39.72949 | 34.51848 | 38018 ft | 445 kts | 293° |
| 2026-04-28 13:26 | 39.75624 | 34.44637 | 38030 ft | 445 kts | 293° |
| 2026-04-28 13:27 | 39.78314 | 34.37368 | 38025 ft | 446 kts | 293° |
| 2026-04-28 13:27 | 39.80998 | 34.30097 | 38022 ft | 446 kts | 293° |
| 2026-04-28 13:28 | 39.83686 | 34.22797 | 38017 ft | 446 kts | 293° |
| 2026-04-28 13:28 | 39.86349 | 34.15547 | 38007 ft | 447 kts | 293° |
| 2026-04-28 13:29 | 39.89030 | 34.08233 | 38024 ft | 447 kts | 293° |
| 2026-04-28 13:29 | 39.91703 | 34.00919 | 38004 ft | 447 kts | 293° |
| 2026-04-28 13:30 | 39.94372 | 33.93599 | 38016 ft | 447 kts | 293° |
| 2026-04-28 13:30 | 39.97018 | 33.86323 | 38014 ft | 447 kts | 293° |
| 2026-04-28 13:31 | 40.01011 | 33.75310 | 38012 ft | 447 kts | 293° |
| 2026-04-28 13:31 | 40.03665 | 33.67964 | 38012 ft | 447 kts | 293° |
| 2026-04-28 13:32 | 40.06296 | 33.60666 | 38008 ft | 447 kts | 293° |
| 2026-04-28 13:32 | 40.08944 | 33.53303 | 38015 ft | 447 kts | 293° |
| 2026-04-28 13:33 | 40.11586 | 33.45937 | 38015 ft | 447 kts | 293° |
| 2026-04-28 13:33 | 40.14221 | 33.38571 | 38020 ft | 447 kts | 293° |
| 2026-04-28 13:34 | 40.16838 | 33.31236 | 38009 ft | 447 kts | 293° |
| 2026-04-28 13:34 | 40.19470 | 33.23841 | 37998 ft | 447 kts | 293° |
| 2026-04-28 13:35 | 40.22076 | 33.16504 | 38002 ft | 446 kts | 293° |
| 2026-04-28 13:35 | 40.24849 | 33.09222 | 37999 ft | 447 kts | 299° |
| 2026-04-28 13:36 | 40.28350 | 33.02454 | 38009 ft | 448 kts | 302° |
| 2026-04-28 13:36 | 40.31889 | 32.95785 | 38005 ft | 448 kts | 302° |
| 2026-04-28 13:37 | 40.35429 | 32.89047 | 38012 ft | 448 kts | 302° |
| 2026-04-28 13:37 | 40.38947 | 32.82302 | 38028 ft | 448 kts | 302° |
| 2026-04-28 13:38 | 40.42445 | 32.75570 | 38026 ft | 448 kts | 302° |
| 2026-04-28 13:38 | 40.45959 | 32.68794 | 38044 ft | 448 kts | 302° |
| 2026-04-28 13:39 | 40.49467 | 32.62017 | 38038 ft | 449 kts | 302° |
| 2026-04-28 13:39 | 40.52977 | 32.55219 | 38041 ft | 449 kts | 302° |
| 2026-04-28 13:40 | 40.56487 | 32.48410 | 38032 ft | 449 kts | 302° |
| 2026-04-28 13:40 | 40.59971 | 32.41635 | 38042 ft | 449 kts | 302° |
| 2026-04-28 13:41 | 40.63474 | 32.34806 | 38042 ft | 449 kts | 302° |
| 2026-04-28 13:41 | 40.66951 | 32.28015 | 38050 ft | 449 kts | 302° |
| 2026-04-28 13:42 | 40.70426 | 32.21215 | 38059 ft | 448 kts | 302° |
| 2026-04-28 13:42 | 40.73889 | 32.14361 | 38066 ft | 448 kts | 302° |
| 2026-04-28 13:43 | 40.77303 | 32.07480 | 38070 ft | 448 kts | 302° |
| 2026-04-28 13:43 | 40.80691 | 32.00633 | 38072 ft | 448 kts | 302° |
| 2026-04-28 13:44 | 40.84105 | 31.93729 | 38081 ft | 447 kts | 302° |
| 2026-04-28 13:44 | 40.87495 | 31.86868 | 38094 ft | 447 kts | 302° |
| 2026-04-28 13:45 | 40.90903 | 31.79955 | 38080 ft | 447 kts | 302° |
| 2026-04-28 13:45 | 40.94281 | 31.73089 | 38090 ft | 447 kts | 302° |
| 2026-04-28 13:46 | 40.97673 | 31.66178 | 38115 ft | 447 kts | 302° |
| 2026-04-28 13:46 | 41.01039 | 31.59304 | 38121 ft | 447 kts | 302° |
| 2026-04-28 13:47 | 41.04422 | 31.52379 | 38118 ft | 447 kts | 302° |
| 2026-04-28 13:47 | 41.07807 | 31.45435 | 38135 ft | 447 kts | 302° |
| 2026-04-28 13:48 | 41.11180 | 31.38501 | 38131 ft | 447 kts | 302° |
| 2026-04-28 13:48 | 41.14529 | 31.31600 | 38133 ft | 447 kts | 302° |
| 2026-04-28 13:49 | 41.17887 | 31.24665 | 38139 ft | 447 kts | 302° |
| 2026-04-28 13:49 | 41.21245 | 31.17715 | 38144 ft | 446 kts | 302° |
| 2026-04-28 13:50 | 41.24598 | 31.10759 | 38147 ft | 446 kts | 301° |
| 2026-04-28 13:50 | 41.27921 | 31.03849 | 38147 ft | 446 kts | 301° |
| 2026-04-28 13:51 | 41.31261 | 30.96886 | 38151 ft | 446 kts | 301° |
| 2026-04-28 13:51 | 41.34595 | 30.89921 | 38145 ft | 445 kts | 301° |
| 2026-04-28 13:52 | 41.37919 | 30.82962 | 38151 ft | 445 kts | 301° |
| 2026-04-28 13:52 | 41.41219 | 30.76038 | 38147 ft | 445 kts | 301° |
| 2026-04-28 13:53 | 41.44542 | 30.69068 | 38154 ft | 444 kts | 302° |
| 2026-04-28 13:53 | 41.47859 | 30.62167 | 38151 ft | 444 kts | 302° |
| 2026-04-28 13:54 | 41.51189 | 30.55233 | 38148 ft | 443 kts | 301° |
| 2026-04-28 13:54 | 41.54517 | 30.48280 | 38166 ft | 443 kts | 301° |
| 2026-04-28 13:55 | 41.57805 | 30.41387 | 38158 ft | 442 kts | 301° |
| 2026-04-28 13:55 | 41.61112 | 30.34439 | 38153 ft | 442 kts | 301° |
| 2026-04-28 13:56 | 41.64394 | 30.27528 | 38147 ft | 441 kts | 301° |
| 2026-04-28 13:56 | 41.67687 | 30.20576 | 38160 ft | 441 kts | 301° |
| 2026-04-28 13:57 | 41.70956 | 30.13659 | 38158 ft | 441 kts | 301° |
| 2026-04-28 13:57 | 41.74239 | 30.06698 | 38154 ft | 441 kts | 301° |
| 2026-04-28 13:58 | 41.77513 | 29.99740 | 38159 ft | 441 kts | 301° |
| 2026-04-28 13:58 | 41.80785 | 29.92770 | 38158 ft | 442 kts | 301° |
| 2026-04-28 13:59 | 41.84056 | 29.85786 | 38163 ft | 442 kts | 301° |
| 2026-04-28 13:59 | 41.87306 | 29.78831 | 38160 ft | 442 kts | 301° |
| 2026-04-28 14:00 | 41.90576 | 29.71816 | 38164 ft | 442 kts | 301° |
| 2026-04-28 14:00 | 41.93827 | 29.64827 | 38167 ft | 442 kts | 301° |
| 2026-04-28 14:01 | 41.97092 | 29.57789 | 38165 ft | 442 kts | 301° |
| 2026-04-28 14:01 | 42.00331 | 29.50792 | 38154 ft | 442 kts | 301° |
| 2026-04-28 14:02 | 42.03583 | 29.43751 | 38157 ft | 442 kts | 301° |
| 2026-04-28 14:02 | 42.06800 | 29.36769 | 38163 ft | 441 kts | 301° |
| 2026-04-28 14:03 | 42.10020 | 29.29762 | 38163 ft | 440 kts | 301° |
| 2026-04-28 14:03 | 42.13245 | 29.22733 | 38154 ft | 440 kts | 301° |
| 2026-04-28 14:04 | 42.16618 | 29.15910 | 38152 ft | 440 kts | 308° |
| 2026-04-28 14:04 | 42.20817 | 29.09858 | 38153 ft | 441 kts | 317° |
| 2026-04-28 14:05 | 42.25456 | 29.04463 | 38157 ft | 442 kts | 317° |
| 2026-04-28 14:05 | 42.30141 | 28.99072 | 38157 ft | 442 kts | 317° |
| 2026-04-28 14:06 | 42.34811 | 28.93653 | 38156 ft | 442 kts | 317° |
| 2026-04-28 14:06 | 42.39442 | 28.88240 | 38167 ft | 442 kts | 317° |
| 2026-04-28 14:07 | 42.43309 | 28.83703 | 38166 ft | 442 kts | 317° |
| 2026-04-28 14:07 | 42.48715 | 28.77346 | 38166 ft | 441 kts | 317° |
| 2026-04-28 14:08 | 42.53354 | 28.71880 | 38167 ft | 441 kts | 317° |
| 2026-04-28 14:08 | 42.57209 | 28.67330 | 38169 ft | 441 kts | 317° |
| 2026-04-28 14:09 | 42.61821 | 28.61877 | 38169 ft | 441 kts | 317° |
| 2026-04-28 14:09 | 42.66448 | 28.56394 | 38179 ft | 440 kts | 317° |
| 2026-04-28 14:10 | 42.71038 | 28.50943 | 38170 ft | 440 kts | 317° |
| 2026-04-28 14:10 | 42.75648 | 28.45459 | 38168 ft | 439 kts | 317° |
| 2026-04-28 14:11 | 42.80243 | 28.39980 | 38166 ft | 438 kts | 317° |
| 2026-04-28 14:11 | 42.84826 | 28.34505 | 38169 ft | 437 kts | 317° |
| 2026-04-28 14:12 | 42.89372 | 28.29062 | 38164 ft | 437 kts | 317° |
| 2026-04-28 14:12 | 42.93946 | 28.23575 | 38166 ft | 436 kts | 317° |
| 2026-04-28 14:13 | 42.98481 | 28.18123 | 38170 ft | 436 kts | 316° |
| 2026-04-28 14:13 | 43.03044 | 28.12627 | 38164 ft | 436 kts | 316° |
| 2026-04-28 14:14 | 43.07560 | 28.07176 | 38146 ft | 436 kts | 316° |
| 2026-04-28 14:14 | 43.12116 | 28.01665 | 38140 ft | 436 kts | 316° |
| 2026-04-28 14:15 | 43.16642 | 27.96180 | 38137 ft | 436 kts | 316° |
| 2026-04-28 14:15 | 43.21201 | 27.90642 | 38133 ft | 436 kts | 316° |
| 2026-04-28 14:16 | 43.25727 | 27.85134 | 38130 ft | 437 kts | 316° |
| 2026-04-28 14:16 | 43.30274 | 27.79589 | 38134 ft | 437 kts | 316° |
| 2026-04-28 14:17 | 43.34802 | 27.74055 | 38136 ft | 437 kts | 316° |
| 2026-04-28 14:17 | 43.39358 | 27.68476 | 38125 ft | 437 kts | 316° |
| 2026-04-28 14:18 | 43.43891 | 27.62913 | 38124 ft | 437 kts | 316° |
| 2026-04-28 14:18 | 43.48433 | 27.57327 | 38113 ft | 437 kts | 316° |
| 2026-04-28 14:19 | 43.52938 | 27.51774 | 38100 ft | 436 kts | 316° |
| 2026-04-28 14:19 | 43.57470 | 27.46178 | 38103 ft | 436 kts | 316° |
| 2026-04-28 14:20 | 43.61989 | 27.40585 | 38095 ft | 435 kts | 316° |
| 2026-04-28 14:20 | 43.66466 | 27.35032 | 38098 ft | 435 kts | 316° |
| 2026-04-28 14:21 | 43.70977 | 27.29426 | 38082 ft | 435 kts | 316° |
| 2026-04-28 14:21 | 43.75449 | 27.23856 | 38089 ft | 435 kts | 316° |
| 2026-04-28 14:22 | 43.79950 | 27.18238 | 38084 ft | 435 kts | 316° |
| 2026-04-28 14:22 | 43.84447 | 27.12613 | 38113 ft | 435 kts | 316° |
| 2026-04-28 14:23 | 43.88950 | 27.06969 | 38085 ft | 436 kts | 316° |
| 2026-04-28 14:23 | 43.93417 | 27.01358 | 38084 ft | 436 kts | 316° |
| 2026-04-28 14:24 | 43.97919 | 26.95691 | 38092 ft | 436 kts | 316° |
| 2026-04-28 14:24 | 44.02388 | 26.90053 | 38085 ft | 436 kts | 316° |
| 2026-04-28 14:25 | 44.06888 | 26.84366 | 38099 ft | 435 kts | 315° |
| 2026-04-28 14:25 | 44.11192 | 26.78455 | 38094 ft | 434 kts | 312° |
| 2026-04-28 14:26 | 44.15332 | 26.72388 | 38122 ft | 434 kts | 311° |
| 2026-04-28 14:26 | 44.19493 | 26.66262 | 38098 ft | 434 kts | 311° |
| 2026-04-28 14:27 | 44.23637 | 26.60175 | 38083 ft | 434 kts | 311° |
| 2026-04-28 14:27 | 44.27780 | 26.54091 | 38088 ft | 434 kts | 311° |
| 2026-04-28 14:28 | 44.31945 | 26.47967 | 38093 ft | 434 kts | 311° |
| 2026-04-28 14:28 | 44.36088 | 26.41862 | 38092 ft | 434 kts | 311° |
| 2026-04-28 14:29 | 44.40257 | 26.35705 | 38086 ft | 434 kts | 311° |
| 2026-04-28 14:29 | 44.44378 | 26.29604 | 38089 ft | 434 kts | 311° |
| 2026-04-28 14:30 | 44.48520 | 26.23460 | 38104 ft | 433 kts | 311° |
| 2026-04-28 14:30 | 44.52673 | 26.17284 | 38079 ft | 433 kts | 311° |
| 2026-04-28 14:31 | 44.56790 | 26.11150 | 38076 ft | 433 kts | 311° |
| 2026-04-28 14:31 | 44.60921 | 26.04980 | 38078 ft | 432 kts | 311° |
| 2026-04-28 14:32 | 44.65002 | 25.98871 | 38074 ft | 431 kts | 311° |
| 2026-04-28 14:32 | 44.69112 | 25.92706 | 38078 ft | 431 kts | 311° |
| 2026-04-28 14:33 | 44.73186 | 25.86581 | 38081 ft | 430 kts | 311° |
| 2026-04-28 14:33 | 44.77275 | 25.80419 | 38083 ft | 430 kts | 311° |
| 2026-04-28 14:34 | 44.83376 | 25.71200 | 38092 ft | 430 kts | 311° |
| 2026-04-28 14:35 | 44.87468 | 25.65000 | 38090 ft | 430 kts | 311° |
| 2026-04-28 14:35 | 44.91522 | 25.58844 | 38080 ft | 430 kts | 311° |
| 2026-04-28 14:36 | 44.95593 | 25.52649 | 38077 ft | 429 kts | 311° |
| 2026-04-28 14:36 | 44.99652 | 25.46455 | 38076 ft | 429 kts | 311° |
| 2026-04-28 14:37 | 45.03677 | 25.40303 | 38082 ft | 429 kts | 311° |
| 2026-04-28 14:37 | 45.07727 | 25.34097 | 38082 ft | 429 kts | 311° |
| 2026-04-28 14:38 | 45.11757 | 25.27907 | 38077 ft | 429 kts | 311° |
| 2026-04-28 14:38 | 45.15805 | 25.21677 | 38100 ft | 430 kts | 311° |
| 2026-04-28 14:39 | 45.19861 | 25.15419 | 38077 ft | 431 kts | 311° |
| 2026-04-28 14:39 | 45.23919 | 25.09145 | 38077 ft | 431 kts | 311° |
| 2026-04-28 14:40 | 45.27958 | 25.02887 | 38072 ft | 431 kts | 311° |
| 2026-04-28 14:40 | 45.32018 | 24.96582 | 38096 ft | 430 kts | 311° |
| 2026-04-28 14:41 | 45.36037 | 24.90324 | 38081 ft | 429 kts | 311° |
| 2026-04-28 14:41 | 45.40062 | 24.84045 | 38107 ft | 429 kts | 310° |
| 2026-04-28 14:42 | 45.44079 | 24.77761 | 38110 ft | 428 kts | 310° |
| 2026-04-28 14:42 | 45.48066 | 24.71514 | 38149 ft | 426 kts | 310° |
| 2026-04-28 14:43 | 45.52068 | 24.65228 | 38103 ft | 428 kts | 310° |
| 2026-04-28 14:43 | 45.56064 | 24.58933 | 38099 ft | 428 kts | 310° |
| 2026-04-28 14:44 | 45.60056 | 24.52634 | 38104 ft | 428 kts | 310° |
| 2026-04-28 14:44 | 45.64033 | 24.46343 | 38120 ft | 429 kts | 310° |
| 2026-04-28 14:45 | 45.68046 | 24.39980 | 38118 ft | 430 kts | 310° |
| 2026-04-28 14:45 | 45.72031 | 24.33648 | 38108 ft | 431 kts | 310° |
| 2026-04-28 14:46 | 45.76061 | 24.27229 | 38112 ft | 431 kts | 310° |
| 2026-04-28 14:46 | 45.80044 | 24.20871 | 38103 ft | 430 kts | 310° |
| 2026-04-28 14:47 | 45.84047 | 24.14466 | 38112 ft | 430 kts | 310° |
| 2026-04-28 14:47 | 45.88016 | 24.08100 | 38107 ft | 429 kts | 310° |
| 2026-04-28 14:48 | 45.91987 | 24.01715 | 38102 ft | 427 kts | 310° |
| 2026-04-28 14:48 | 45.95944 | 23.95339 | 38117 ft | 427 kts | 310° |
| 2026-04-28 14:49 | 45.99872 | 23.88995 | 38120 ft | 426 kts | 310° |
| 2026-04-28 14:49 | 46.03821 | 23.82602 | 38126 ft | 426 kts | 310° |
| 2026-04-28 14:50 | 46.07746 | 23.76232 | 38131 ft | 426 kts | 310° |
| 2026-04-28 14:50 | 46.11662 | 23.69863 | 38119 ft | 426 kts | 310° |
| 2026-04-28 14:51 | 46.15596 | 23.63451 | 38148 ft | 426 kts | 310° |
| 2026-04-28 14:51 | 46.19530 | 23.57022 | 38137 ft | 426 kts | 310° |
| 2026-04-28 14:52 | 46.23421 | 23.50649 | 38126 ft | 426 kts | 310° |
| 2026-04-28 14:52 | 46.27345 | 23.44208 | 38132 ft | 426 kts | 310° |
| 2026-04-28 14:53 | 46.31263 | 23.37759 | 38117 ft | 427 kts | 310° |
| 2026-04-28 14:53 | 46.35163 | 23.31325 | 38123 ft | 427 kts | 309° |
| 2026-04-28 14:54 | 46.39087 | 23.24838 | 38121 ft | 428 kts | 309° |
| 2026-04-28 14:54 | 46.42348 | 23.19436 | 38128 ft | 428 kts | 309° |
| 2026-04-28 14:55 | 46.46277 | 23.12911 | 38138 ft | 429 kts | 309° |
| 2026-04-28 14:55 | 46.50166 | 23.06436 | 38135 ft | 428 kts | 309° |
| 2026-04-28 14:56 | 46.54074 | 22.99916 | 38125 ft | 427 kts | 309° |
| 2026-04-28 14:56 | 46.57971 | 22.93398 | 38130 ft | 427 kts | 309° |
| 2026-04-28 14:57 | 46.61861 | 22.86878 | 38116 ft | 426 kts | 309° |
| 2026-04-28 14:57 | 46.65745 | 22.80351 | 38112 ft | 425 kts | 309° |
| 2026-04-28 14:58 | 46.69587 | 22.73879 | 38125 ft | 424 kts | 309° |
| 2026-04-28 14:58 | 46.73444 | 22.67366 | 38123 ft | 424 kts | 309° |
| 2026-04-28 14:59 | 46.77297 | 22.60845 | 38137 ft | 424 kts | 309° |
| 2026-04-28 14:59 | 46.81126 | 22.54347 | 38129 ft | 424 kts | 309° |
| 2026-04-28 15:00 | 46.84982 | 22.47790 | 38142 ft | 426 kts | 309° |
| 2026-04-28 15:00 | 46.88844 | 22.41206 | 38145 ft | 426 kts | 309° |
| 2026-04-28 15:01 | 46.92685 | 22.34641 | 38122 ft | 427 kts | 309° |
| 2026-04-28 15:01 | 46.96552 | 22.28016 | 38122 ft | 427 kts | 309° |
| 2026-04-28 15:02 | 47.00385 | 22.21434 | 38139 ft | 427 kts | 309° |
| 2026-04-28 15:02 | 47.04240 | 22.14799 | 38129 ft | 427 kts | 309° |
| 2026-04-28 15:03 | 47.08068 | 22.08192 | 38135 ft | 426 kts | 308° |
| 2026-04-28 15:03 | 47.11902 | 22.01559 | 38150 ft | 425 kts | 308° |
| 2026-04-28 15:04 | 47.15708 | 21.94959 | 38135 ft | 424 kts | 308° |
| 2026-04-28 15:04 | 47.19478 | 21.88255 | 38138 ft | 424 kts | 304° |
| 2026-04-28 15:05 | 47.22588 | 21.80889 | 38134 ft | 423 kts | 296° |
| 2026-04-28 15:05 | 47.25161 | 21.73115 | 38138 ft | 424 kts | 296° |
| 2026-04-28 15:06 | 47.27727 | 21.65294 | 38134 ft | 425 kts | 296° |
| 2026-04-28 15:06 | 47.30313 | 21.57434 | 38143 ft | 426 kts | 296° |
| 2026-04-28 15:07 | 47.32903 | 21.49565 | 38129 ft | 426 kts | 296° |
| 2026-04-28 15:07 | 47.35488 | 21.41696 | 38127 ft | 426 kts | 296° |
| 2026-04-28 15:08 | 47.38056 | 21.33855 | 38131 ft | 426 kts | 295° |
| 2026-04-28 15:08 | 47.40613 | 21.26023 | 38150 ft | 425 kts | 295° |
| 2026-04-28 15:09 | 47.43176 | 21.18151 | 38147 ft | 425 kts | 295° |
| 2026-04-28 15:09 | 47.45732 | 21.10273 | 38145 ft | 424 kts | 295° |
| 2026-04-28 15:10 | 47.48276 | 21.02408 | 38154 ft | 424 kts | 295° |
| 2026-04-28 15:10 | 47.50813 | 20.94542 | 38134 ft | 424 kts | 295° |
| 2026-04-28 15:11 | 47.53351 | 20.86648 | 38132 ft | 424 kts | 295° |
| 2026-04-28 15:11 | 47.55863 | 20.78809 | 38146 ft | 424 kts | 295° |
| 2026-04-28 15:12 | 47.58378 | 20.70939 | 38155 ft | 424 kts | 295° |
| 2026-04-28 15:12 | 47.60903 | 20.63010 | 38151 ft | 424 kts | 295° |
| 2026-04-28 15:13 | 47.63408 | 20.55121 | 38152 ft | 424 kts | 295° |
| 2026-04-28 15:13 | 47.65905 | 20.47234 | 38134 ft | 424 kts | 295° |
| 2026-04-28 15:14 | 47.68412 | 20.39288 | 38134 ft | 424 kts | 295° |
| 2026-04-28 15:14 | 47.70916 | 20.31328 | 38136 ft | 425 kts | 295° |
| 2026-04-28 15:15 | 47.73401 | 20.23404 | 38128 ft | 425 kts | 295° |
| 2026-04-28 15:15 | 47.75898 | 20.15414 | 38117 ft | 426 kts | 295° |
| 2026-04-28 15:16 | 47.78376 | 20.07462 | 38118 ft | 426 kts | 295° |
| 2026-04-28 15:16 | 47.80870 | 19.99432 | 38135 ft | 427 kts | 295° |
| 2026-04-28 15:17 | 47.83358 | 19.91395 | 38114 ft | 428 kts | 295° |
| 2026-04-28 15:17 | 47.85833 | 19.83377 | 38116 ft | 428 kts | 295° |
| 2026-04-28 15:18 | 47.88317 | 19.75298 | 38105 ft | 428 kts | 295° |
| 2026-04-28 15:18 | 47.90780 | 19.67265 | 38100 ft | 428 kts | 295° |
| 2026-04-28 15:19 | 47.93252 | 19.59178 | 38104 ft | 427 kts | 294° |
| 2026-04-28 15:19 | 47.95709 | 19.51112 | 38122 ft | 426 kts | 294° |
| 2026-04-28 15:20 | 47.98142 | 19.43101 | 38109 ft | 426 kts | 294° |
| 2026-04-28 15:20 | 48.00584 | 19.35033 | 38117 ft | 426 kts | 294° |
| 2026-04-28 15:21 | 48.03024 | 19.26942 | 38112 ft | 426 kts | 294° |
| 2026-04-28 15:21 | 48.05442 | 19.18904 | 38122 ft | 426 kts | 294° |
| 2026-04-28 15:22 | 48.07986 | 19.10946 | 38126 ft | 426 kts | 300° |
| 2026-04-28 15:22 | 48.11100 | 19.03383 | 38117 ft | 426 kts | 301° |
| 2026-04-28 15:23 | 48.14233 | 18.95827 | 38120 ft | 427 kts | 301° |
| 2026-04-28 15:23 | 48.17331 | 18.88297 | 38121 ft | 427 kts | 301° |
| 2026-04-28 15:24 | 48.20442 | 18.80691 | 38120 ft | 428 kts | 301° |
| 2026-04-28 15:24 | 48.23551 | 18.73059 | 38124 ft | 428 kts | 301° |
| 2026-04-28 15:25 | 48.26650 | 18.65431 | 38133 ft | 428 kts | 301° |
| 2026-04-28 15:25 | 48.29729 | 18.57829 | 38134 ft | 427 kts | 300° |
| 2026-04-28 15:26 | 48.32819 | 18.50181 | 38115 ft | 428 kts | 300° |
| 2026-04-28 15:26 | 48.35888 | 18.42562 | 38135 ft | 427 kts | 300° |
| 2026-04-28 15:27 | 48.38972 | 18.34885 | 38130 ft | 427 kts | 300° |
| 2026-04-28 15:27 | 48.42028 | 18.27254 | 38128 ft | 427 kts | 300° |
| 2026-04-28 15:28 | 48.45090 | 18.19589 | 38131 ft | 426 kts | 300° |
| 2026-04-28 15:28 | 48.48147 | 18.11913 | 38138 ft | 427 kts | 300° |
| 2026-04-28 15:29 | 48.51179 | 18.04275 | 38141 ft | 426 kts | 300° |
| 2026-04-28 15:29 | 48.54226 | 17.96580 | 38122 ft | 426 kts | 300° |
| 2026-04-28 15:30 | 48.57267 | 17.88881 | 38144 ft | 427 kts | 300° |
| 2026-04-28 15:30 | 48.60292 | 17.81197 | 38121 ft | 428 kts | 300° |
| 2026-04-28 15:31 | 48.63341 | 17.73428 | 38136 ft | 428 kts | 300° |
| 2026-04-28 15:31 | 48.66362 | 17.65711 | 38138 ft | 429 kts | 300° |
| 2026-04-28 15:32 | 48.69397 | 17.57934 | 38127 ft | 429 kts | 300° |
| 2026-04-28 15:32 | 48.72431 | 17.50136 | 38147 ft | 429 kts | 300° |
| 2026-04-28 15:33 | 48.75443 | 17.42373 | 38151 ft | 430 kts | 300° |
| 2026-04-28 15:33 | 48.78469 | 17.34548 | 38158 ft | 430 kts | 300° |
| 2026-04-28 15:34 | 48.81496 | 17.26701 | 38156 ft | 430 kts | 300° |
| 2026-04-28 15:34 | 48.84498 | 17.18895 | 38162 ft | 430 kts | 299° |
| 2026-04-28 15:35 | 48.87182 | 17.10804 | 38169 ft | 429 kts | 295° |
| 2026-04-28 15:35 | 48.90911 | 16.98439 | 38159 ft | 429 kts | 295° |
| 2026-04-28 15:36 | 48.93390 | 16.90214 | 38147 ft | 429 kts | 295° |
| 2026-04-28 15:36 | 48.95880 | 16.81956 | 38183 ft | 428 kts | 295° |
| 2026-04-28 15:37 | 48.98356 | 16.73727 | 38167 ft | 429 kts | 295° |
| 2026-04-28 15:37 | 49.00425 | 16.66831 | 38162 ft | 430 kts | 294° |
| 2026-04-28 15:38 | 49.03308 | 16.57192 | 38158 ft | 430 kts | 294° |
| 2026-04-28 15:38 | 49.05789 | 16.48862 | 38152 ft | 430 kts | 294° |
| 2026-04-28 15:39 | 49.08245 | 16.40591 | 38161 ft | 430 kts | 294° |
| 2026-04-28 15:39 | 49.10709 | 16.32265 | 38156 ft | 430 kts | 294° |
| 2026-04-28 15:40 | 49.13169 | 16.23919 | 38160 ft | 430 kts | 294° |
| 2026-04-28 15:40 | 49.15608 | 16.15620 | 38156 ft | 430 kts | 294° |
| 2026-04-28 15:41 | 49.18044 | 16.07302 | 38148 ft | 430 kts | 294° |
| 2026-04-28 15:41 | 49.20487 | 15.98932 | 38154 ft | 430 kts | 294° |
| 2026-04-28 15:42 | 49.22926 | 15.90546 | 38166 ft | 431 kts | 294° |
| 2026-04-28 15:42 | 49.25348 | 15.82190 | 38170 ft | 431 kts | 294° |
| 2026-04-28 15:43 | 49.27777 | 15.73780 | 38161 ft | 432 kts | 294° |
| 2026-04-28 15:43 | 49.30191 | 15.65392 | 38162 ft | 432 kts | 294° |
| 2026-04-28 15:44 | 49.32207 | 15.58366 | 38168 ft | 432 kts | 294° |
| 2026-04-28 15:44 | 49.34624 | 15.49914 | 38165 ft | 432 kts | 294° |
| 2026-04-28 15:45 | 49.37035 | 15.41450 | 38155 ft | 432 kts | 294° |
| 2026-04-28 15:45 | 49.39443 | 15.32971 | 38140 ft | 432 kts | 293° |
| 2026-04-28 15:46 | 49.41828 | 15.24542 | 38168 ft | 433 kts | 293° |
| 2026-04-28 15:46 | 49.44231 | 15.16019 | 38168 ft | 434 kts | 293° |
| 2026-04-28 15:47 | 49.46625 | 15.07495 | 38172 ft | 434 kts | 293° |
| 2026-04-28 15:47 | 49.49005 | 14.98994 | 38162 ft | 435 kts | 293° |
| 2026-04-28 15:48 | 49.51395 | 14.90423 | 38152 ft | 435 kts | 293° |
| 2026-04-28 15:48 | 49.53764 | 14.81900 | 38166 ft | 435 kts | 293° |
| 2026-04-28 15:49 | 49.56142 | 14.73312 | 38161 ft | 435 kts | 293° |
| 2026-04-28 15:49 | 49.58504 | 14.64749 | 38170 ft | 435 kts | 293° |
| 2026-04-28 15:50 | 49.60872 | 14.56134 | 38171 ft | 436 kts | 293° |
| 2026-04-28 15:50 | 49.63172 | 14.47738 | 38166 ft | 436 kts | 293° |
| 2026-04-28 15:51 | 49.65517 | 14.39146 | 38169 ft | 436 kts | 293° |
| 2026-04-28 15:51 | 49.67859 | 14.30530 | 38176 ft | 436 kts | 292° |
| 2026-04-28 15:52 | 49.70208 | 14.21858 | 38168 ft | 437 kts | 292° |
| 2026-04-28 15:52 | 49.72548 | 14.13189 | 38168 ft | 437 kts | 292° |
| 2026-04-28 15:53 | 49.74870 | 14.04551 | 38167 ft | 437 kts | 292° |
| 2026-04-28 15:53 | 49.77199 | 13.95859 | 38178 ft | 437 kts | 292° |
| 2026-04-28 15:54 | 49.79508 | 13.87204 | 38183 ft | 437 kts | 292° |
| 2026-04-28 15:54 | 49.81833 | 13.78458 | 38179 ft | 438 kts | 292° |
| 2026-04-28 15:55 | 49.84138 | 13.69755 | 38183 ft | 439 kts | 292° |
| 2026-04-28 15:55 | 49.86456 | 13.60973 | 38182 ft | 440 kts | 292° |
| 2026-04-28 15:56 | 49.88757 | 13.52218 | 38178 ft | 441 kts | 292° |
| 2026-04-28 15:56 | 49.91072 | 13.43376 | 38176 ft | 441 kts | 292° |
| 2026-04-28 15:57 | 49.93364 | 13.34590 | 38189 ft | 442 kts | 292° |
| 2026-04-28 15:57 | 49.95668 | 13.25720 | 38189 ft | 442 kts | 292° |
| 2026-04-28 15:58 | 49.97953 | 13.16890 | 38180 ft | 442 kts | 292° |
| 2026-04-28 15:58 | 50.00243 | 13.08010 | 38188 ft | 441 kts | 292° |
| 2026-04-28 15:59 | 50.02507 | 12.99194 | 38184 ft | 441 kts | 292° |
| 2026-04-28 15:59 | 50.04777 | 12.90317 | 38186 ft | 441 kts | 292° |
| 2026-04-28 16:00 | 50.07037 | 12.81447 | 38175 ft | 441 kts | 292° |
| 2026-04-28 16:00 | 50.09293 | 12.72560 | 38198 ft | 441 kts | 292° |
| 2026-04-28 16:01 | 50.11532 | 12.63705 | 38188 ft | 442 kts | 291° |
| 2026-04-28 16:01 | 50.13782 | 12.54764 | 38186 ft | 442 kts | 291° |
| 2026-04-28 16:02 | 50.16014 | 12.45867 | 38170 ft | 442 kts | 291° |
| 2026-04-28 16:02 | 50.18252 | 12.36913 | 38191 ft | 442 kts | 291° |
| 2026-04-28 16:03 | 50.20040 | 12.27766 | 38189 ft | 443 kts | 284° |
| 2026-04-28 16:03 | 50.21497 | 12.18379 | 38199 ft | 444 kts | 284° |
| 2026-04-28 16:04 | 50.22958 | 12.09067 | 38208 ft | 444 kts | 284° |
| 2026-04-28 16:04 | 50.24446 | 11.99658 | 38196 ft | 444 kts | 284° |
| 2026-04-28 16:05 | 50.25906 | 11.90306 | 38211 ft | 445 kts | 284° |
| 2026-04-28 16:05 | 50.27355 | 11.80885 | 38210 ft | 445 kts | 284° |
| 2026-04-28 16:06 | 50.28791 | 11.71510 | 38223 ft | 446 kts | 284° |
| 2026-04-28 16:06 | 50.30237 | 11.62042 | 38217 ft | 447 kts | 284° |
| 2026-04-28 16:07 | 50.31673 | 11.52536 | 38206 ft | 448 kts | 284° |
| 2026-04-28 16:08 | 50.33803 | 11.38296 | 38210 ft | 450 kts | 284° |
| 2026-04-28 16:08 | 50.35217 | 11.28781 | 38209 ft | 450 kts | 284° |
| 2026-04-28 16:09 | 50.37322 | 11.14423 | 38207 ft | 451 kts | 284° |
| 2026-04-28 16:10 | 50.39383 | 11.00083 | 38199 ft | 451 kts | 283° |
| 2026-04-28 16:10 | 50.41438 | 10.85689 | 38204 ft | 451 kts | 283° |
| 2026-04-28 16:11 | 50.44166 | 10.66444 | 38181 ft | 451 kts | 283° |
| 2026-04-28 16:12 | 50.46247 | 10.52076 | 38194 ft | 452 kts | 283° |
| 2026-04-28 16:13 | 50.48296 | 10.37611 | 38190 ft | 452 kts | 283° |
| 2026-04-28 16:14 | 50.50979 | 10.18324 | 38180 ft | 453 kts | 283° |
| 2026-04-28 16:15 | 50.53899 | 9.99113 | 38163 ft | 454 kts | 292° |
| 2026-04-28 16:15 | 50.56845 | 9.90355 | 38189 ft | 454 kts | 304° |
| 2026-04-28 16:16 | 50.62927 | 9.78866 | 38174 ft | 455 kts | 309° |
| 2026-04-28 16:17 | 50.68991 | 9.67350 | 38189 ft | 456 kts | 308° |
| 2026-04-28 16:17 | 50.73018 | 9.59578 | 38190 ft | 457 kts | 308° |
| 2026-04-28 16:18 | 50.77075 | 9.51807 | 38194 ft | 458 kts | 309° |
| 2026-04-28 16:18 | 50.81137 | 9.44046 | 38194 ft | 458 kts | 309° |
| 2026-04-28 16:19 | 50.85182 | 9.36284 | 38192 ft | 459 kts | 308° |
| 2026-04-28 16:19 | 50.89226 | 9.28492 | 38205 ft | 459 kts | 308° |
| 2026-04-28 16:20 | 50.93288 | 9.20639 | 38203 ft | 460 kts | 308° |
| 2026-04-28 16:20 | 50.97331 | 9.12799 | 38206 ft | 460 kts | 308° |
| 2026-04-28 16:21 | 51.01388 | 9.04909 | 38208 ft | 461 kts | 309° |
| 2026-04-28 16:21 | 51.05418 | 8.97046 | 38205 ft | 461 kts | 308° |
| 2026-04-28 16:22 | 51.09477 | 8.89103 | 38202 ft | 461 kts | 308° |
| 2026-04-28 16:22 | 51.13509 | 8.81192 | 38198 ft | 461 kts | 308° |
| 2026-04-28 16:23 | 51.17545 | 8.73234 | 38192 ft | 461 kts | 308° |
| 2026-04-28 16:23 | 51.21553 | 8.65298 | 38199 ft | 460 kts | 308° |
| 2026-04-28 16:24 | 51.25573 | 8.57316 | 38185 ft | 460 kts | 308° |
| 2026-04-28 16:24 | 51.29567 | 8.49360 | 38200 ft | 461 kts | 309° |
| 2026-04-28 16:25 | 51.33591 | 8.41330 | 38204 ft | 462 kts | 309° |
| 2026-04-28 16:25 | 51.37605 | 8.33353 | 38200 ft | 460 kts | 309° |
| 2026-04-28 16:26 | 51.41603 | 8.25405 | 38199 ft | 459 kts | 309° |
| 2026-04-28 16:26 | 51.45643 | 8.17339 | 38207 ft | 466 kts | 309° |
| 2026-04-28 16:27 | 51.49684 | 8.09239 | 38199 ft | 464 kts | 309° |
| 2026-04-28 16:28 | 51.55661 | 7.97210 | 38215 ft | 457 kts | 310° |
| 2026-04-28 16:28 | 51.59605 | 7.89233 | 38209 ft | 461 kts | 309° |
| 2026-04-28 16:28 | 51.61631 | 7.85131 | 37578 ft | 473 kts | 309° |
| 2026-04-28 16:29 | 51.65684 | 7.76917 | 36259 ft | 468 kts | 309° |
| 2026-04-28 16:29 | 51.69679 | 7.68781 | 34665 ft | 463 kts | 308° |
| 2026-04-28 16:30 | 51.71694 | 7.64669 | 33651 ft | 468 kts | 308° |
| 2026-04-28 16:30 | 51.73718 | 7.60531 | 32646 ft | 470 kts | 308° |
| 2026-04-28 16:30 | 51.75749 | 7.56374 | 31652 ft | 472 kts | 308° |
| 2026-04-28 16:30 | 51.77784 | 7.52203 | 30806 ft | 471 kts | 309° |
| 2026-04-28 16:31 | 51.79806 | 7.48046 | 30081 ft | 467 kts | 308° |
| 2026-04-28 16:31 | 51.81781 | 7.43985 | 29306 ft | 464 kts | 310° |
| 2026-04-28 16:31 | 51.83757 | 7.39903 | 28626 ft | 456 kts | 309° |
| 2026-04-28 16:31 | 51.85702 | 7.35877 | 27943 ft | 451 kts | 309° |
| 2026-04-28 16:32 | 51.86983 | 7.33230 | 27532 ft | 448 kts | 309° |
| 2026-04-28 16:32 | 51.91406 | 7.24070 | 26008 ft | 440 kts | 310° |
| 2026-04-28 16:32 | 51.92675 | 7.21429 | 25589 ft | 437 kts | 310° |
| 2026-04-28 16:33 | 51.94519 | 7.17602 | 24966 ft | 435 kts | 310° |
| 2026-04-28 16:33 | 51.95756 | 7.15035 | 24558 ft | 433 kts | 310° |
| 2026-04-28 16:33 | 51.98226 | 7.09892 | 23714 ft | 430 kts | 310° |
| 2026-04-28 16:33 | 52.00058 | 7.06067 | 22998 ft | 427 kts | 310° |
| 2026-04-28 16:34 | 52.01874 | 7.02267 | 22362 ft | 423 kts | 310° |
| 2026-04-28 16:34 | 52.03652 | 6.98542 | 21740 ft | 420 kts | 310° |
| 2026-04-28 16:34 | 52.05438 | 6.94791 | 21116 ft | 416 kts | 309° |
| 2026-04-28 16:34 | 52.07204 | 6.91082 | 20518 ft | 413 kts | 309° |
| 2026-04-28 16:35 | 52.08955 | 6.87401 | 19929 ft | 410 kts | 309° |
| 2026-04-28 16:35 | 52.10696 | 6.83719 | 19332 ft | 408 kts | 308° |
| 2026-04-28 16:35 | 52.12259 | 6.79923 | 18742 ft | 407 kts | 302° |
| 2026-04-28 16:35 | 52.13571 | 6.75842 | 18165 ft | 401 kts | 300° |
| 2026-04-28 16:36 | 52.15059 | 6.72065 | 17903 ft | 393 kts | 309° |
| 2026-04-28 16:36 | 52.16778 | 6.68551 | 17653 ft | 400 kts | 312° |
| 2026-04-28 16:36 | 52.18588 | 6.65071 | 17388 ft | 404 kts | 312° |
| 2026-04-28 16:36 | 52.20412 | 6.61557 | 17121 ft | 403 kts | 311° |
| 2026-04-28 16:37 | 52.22177 | 6.58086 | 16854 ft | 402 kts | 311° |
| 2026-04-28 16:37 | 52.23940 | 6.54546 | 16620 ft | 400 kts | 311° |
| 2026-04-28 16:37 | 52.25684 | 6.50998 | 16356 ft | 399 kts | 311° |
| 2026-04-28 16:38 | 52.29117 | 6.43935 | 15839 ft | 397 kts | 310° |
| 2026-04-28 16:38 | 52.30837 | 6.40382 | 15577 ft | 397 kts | 310° |
| 2026-04-28 16:38 | 52.32549 | 6.36842 | 15334 ft | 396 kts | 310° |
| 2026-04-28 16:38 | 52.34248 | 6.33298 | 15064 ft | 396 kts | 310° |
| 2026-04-28 16:39 | 52.35934 | 6.29795 | 14831 ft | 395 kts | 310° |
| 2026-04-28 16:39 | 52.37631 | 6.26266 | 14573 ft | 390 kts | 308° |
| 2026-04-28 16:39 | 52.39295 | 6.22773 | 14315 ft | 389 kts | 311° |
| 2026-04-28 16:39 | 52.40974 | 6.19291 | 14062 ft | 389 kts | 311° |
| 2026-04-28 16:40 | 52.42626 | 6.15846 | 13807 ft | 389 kts | 311° |
| 2026-04-28 16:40 | 52.44294 | 6.12364 | 13534 ft | 388 kts | 311° |
| 2026-04-28 16:40 | 52.45963 | 6.08892 | 13280 ft | 387 kts | 310° |
| 2026-04-28 16:40 | 52.47622 | 6.05407 | 13028 ft | 383 kts | 309° |
| 2026-04-28 16:41 | 52.48924 | 6.01639 | 12761 ft | 382 kts | 290° |
| 2026-04-28 16:41 | 52.49400 | 5.97342 | 12521 ft | 385 kts | 274° |
| 2026-04-28 16:41 | 52.49557 | 5.92911 | 12287 ft | 393 kts | 274° |
| 2026-04-28 16:41 | 52.49730 | 5.88474 | 12035 ft | 394 kts | 275° |
| 2026-04-28 16:42 | 52.49918 | 5.83998 | 11770 ft | 390 kts | 275° |
| 2026-04-28 16:42 | 52.50111 | 5.79588 | 11528 ft | 383 kts | 275° |
| 2026-04-28 16:42 | 52.50303 | 5.75272 | 11271 ft | 372 kts | 275° |
| 2026-04-28 16:42 | 52.50491 | 5.71084 | 11039 ft | 362 kts | 275° |
| 2026-04-28 16:43 | 52.50673 | 5.67056 | 10796 ft | 354 kts | 275° |
| 2026-04-28 16:43 | 52.50850 | 5.63069 | 10580 ft | 346 kts | 275° |
| 2026-04-28 16:43 | 52.51022 | 5.59163 | 10381 ft | 337 kts | 274° |
| 2026-04-28 16:43 | 52.50887 | 5.55424 | 10211 ft | 320 kts | 254° |
| 2026-04-28 16:44 | 52.50166 | 5.52078 | 10114 ft | 306 kts | 249° |
| 2026-04-28 16:44 | 52.49443 | 5.48861 | 9958 ft | 303 kts | 249° |
| 2026-04-28 16:44 | 52.48721 | 5.45595 | 9825 ft | 299 kts | 249° |
| 2026-04-28 16:44 | 52.48030 | 5.42443 | 9717 ft | 296 kts | 250° |
| 2026-04-28 16:45 | 52.47337 | 5.39276 | 9596 ft | 293 kts | 249° |
| 2026-04-28 16:45 | 52.46654 | 5.36147 | 9493 ft | 290 kts | 250° |
| 2026-04-28 16:45 | 52.45976 | 5.33034 | 9377 ft | 290 kts | 250° |
| 2026-04-28 16:45 | 52.45291 | 5.29888 | 9273 ft | 293 kts | 250° |
| 2026-04-28 16:46 | 52.44600 | 5.26714 | 9141 ft | 295 kts | 250° |
| 2026-04-28 16:46 | 52.43919 | 5.23590 | 9027 ft | 294 kts | 249° |
| 2026-04-28 16:46 | 52.43232 | 5.20436 | 8908 ft | 292 kts | 250° |
| 2026-04-28 16:46 | 52.42551 | 5.17317 | 8802 ft | 288 kts | 250° |
| 2026-04-28 16:47 | 52.41877 | 5.14237 | 8667 ft | 287 kts | 249° |
| 2026-04-28 16:47 | 52.41202 | 5.11152 | 8570 ft | 288 kts | 249° |
| 2026-04-28 16:47 | 52.40528 | 5.08077 | 8459 ft | 292 kts | 249° |
| 2026-04-28 16:47 | 52.39837 | 5.04931 | 8346 ft | 292 kts | 249° |
| 2026-04-28 16:48 | 52.39149 | 5.01802 | 8224 ft | 289 kts | 249° |
| 2026-04-28 16:48 | 52.38470 | 4.98719 | 8106 ft | 287 kts | 249° |
| 2026-04-28 16:48 | 52.37799 | 4.95670 | 7983 ft | 285 kts | 249° |
| 2026-04-28 16:48 | 52.37127 | 4.92628 | 7866 ft | 283 kts | 249° |
| 2026-04-28 16:49 | 52.36460 | 4.89609 | 7765 ft | 287 kts | 249° |
| 2026-04-28 16:49 | 52.35778 | 4.86533 | 7661 ft | 286 kts | 249° |
| 2026-04-28 16:49 | 52.35098 | 4.83467 | 7548 ft | 285 kts | 249° |
| 2026-04-28 16:49 | 52.34426 | 4.80440 | 7434 ft | 280 kts | 249° |
| 2026-04-28 16:50 | 52.33766 | 4.77473 | 7303 ft | 273 kts | 248° |
| 2026-04-28 16:50 | 52.33337 | 4.74543 | 7132 ft | 265 kts | 272° |
| 2026-04-28 16:50 | 52.33663 | 4.71640 | 6936 ft | 262 kts | 286° |
| 2026-04-28 16:50 | 52.34101 | 4.68696 | 6698 ft | 266 kts | 284° |
| 2026-04-28 16:51 | 52.34501 | 4.65737 | 6425 ft | 264 kts | 279° |
| 2026-04-28 16:51 | 52.34341 | 4.62817 | 6145 ft | 257 kts | 246° |
| 2026-04-28 16:51 | 52.33477 | 4.60325 | 5907 ft | 250 kts | 234° |
| 2026-04-28 16:51 | 52.32542 | 4.57949 | 5682 ft | 252 kts | 235° |
| 2026-04-28 16:52 | 52.31595 | 4.55498 | 5440 ft | 255 kts | 235° |
| 2026-04-28 16:52 | 52.30652 | 4.53060 | 5188 ft | 256 kts | 235° |
| 2026-04-28 16:52 | 52.29699 | 4.50599 | 4934 ft | 256 kts | 234° |
| 2026-04-28 16:52 | 52.28747 | 4.48147 | 4660 ft | 254 kts | 235° |
| 2026-04-28 16:53 | 52.27780 | 4.45747 | 4401 ft | 248 kts | 227° |
| 2026-04-28 16:53 | 52.26426 | 4.44150 | 4152 ft | 237 kts | 191° |
| 2026-04-28 16:53 | 52.24831 | 4.43957 | 3888 ft | 234 kts | 165° |
| 2026-04-28 16:53 | 52.23302 | 4.44783 | 3541 ft | 229 kts | 146° |
| 2026-04-28 16:54 | 52.22047 | 4.46225 | 3292 ft | 211 kts | 122° |
| 2026-04-28 16:54 | 52.21425 | 4.48222 | 3158 ft | 193 kts | 105° |
| 2026-04-28 16:54 | 52.21012 | 4.50242 | 2996 ft | 179 kts | 101° |
| 2026-04-28 16:54 | 52.20930 | 4.51493 | 2923 ft | 159 kts | 79° |
| 2026-04-28 16:55 | 52.21444 | 4.53649 | 2818 ft | 157 kts | 67° |
| 2026-04-28 16:55 | 52.21905 | 4.55225 | 2601 ft | 148 kts | 66° |
| 2026-04-28 16:55 | 52.22340 | 4.56686 | 2434 ft | 146 kts | 63° |
| 2026-04-28 16:55 | 52.22848 | 4.58157 | 2232 ft | 150 kts | 60° |
| 2026-04-28 16:56 | 52.23392 | 4.59603 | 2019 ft | 147 kts | 58° |
| 2026-04-28 16:56 | 52.23937 | 4.61011 | 1815 ft | 146 kts | 59° |
| 2026-04-28 16:56 | 52.24483 | 4.62415 | 1627 ft | 146 kts | 59° |
| 2026-04-28 16:56 | 52.25033 | 4.63827 | 1430 ft | 148 kts | 59° |
| 2026-04-28 16:57 | 52.25582 | 4.65236 | 1221 ft | 146 kts | 58° |
| 2026-04-28 16:57 | 52.26115 | 4.66605 | 1021 ft | 143 kts | 57° |
| 2026-04-28 16:57 | 52.26641 | 4.67951 | 824 ft | 135 kts | 58° |
| 2026-04-28 16:57 | 52.27121 | 4.69186 | 661 ft | 121 kts | 58° |
| 2026-04-28 16:58 | 52.27567 | 4.70335 | 508 ft | 120 kts | 58° |
| 2026-04-28 16:58 | 52.28034 | 4.71493 | 312 ft | 121 kts | 55° |
| 2026-04-28 16:58 | 52.28495 | 4.72655 | 175 ft | 125 kts | 56° |
| 2026-04-28 16:58 | 52.28972 | 4.73884 | 27 ft | 131 kts | 57° |
| 2026-04-28 16:59 | 52.29395 | 4.74977 | 2 ft | 69 kts | 58° |
| 2026-04-28 16:59 | 52.29535 | 4.75333 | 2 ft | 9 kts | 50° |
| 2026-04-28 16:59 | 52.29538 | 4.75339 | 2 ft | 3 kts | 50° |
| 2026-04-28 16:59 | 52.29594 | 4.75363 | 3 ft | 14 kts | 355° |
| 2026-04-28 17:00 | 52.29688 | 4.75298 | 3 ft | 9 kts | 341° |
| 2026-04-28 17:00 | 52.29810 | 4.75244 | 2 ft | 27 kts | 326° |
| 2026-04-28 17:00 | 52.29974 | 4.74940 | 2 ft | 44 kts | 312° |
| 2026-04-28 17:00 | 52.30098 | 4.74715 | 2 ft | 0 kts | 311° |
| 2026-04-28 17:01 | 52.30105 | 4.74701 | 2 ft | 0 kts | 311° |
| 2026-04-28 17:01 | 52.30111 | 4.74691 | 2 ft | 0 kts | 311° |
| 2026-04-28 17:06 | 52.30250 | 4.74436 | 2 ft | 28 kts | 312° |
| 2026-04-28 17:07 | 52.30444 | 4.74204 | 2 ft | 33 kts | 356° |
| 2026-04-28 17:07 | 52.30726 | 4.74216 | 2 ft | 48 kts | 3° |
| 2026-04-28 17:07 | 52.31087 | 4.74257 | 2 ft | 54 kts | 5° |
| 2026-04-28 17:07 | 52.31356 | 4.74311 | 2 ft | 29 kts | 39° |
| 2026-04-28 17:08 | 52.31402 | 4.74577 | 2 ft | 22 kts | 87° |
| 2026-04-28 17:08 | 52.31408 | 4.74860 | 2 ft | 28 kts | 88° |
| 2026-04-28 17:08 | 52.31420 | 4.75217 | 2 ft | 34 kts | 86° |
| 2026-04-28 17:08 | 52.31437 | 4.75635 | 2 ft | 39 kts | 86° |
| 2026-04-28 17:09 | 52.31440 | 4.75849 | 2 ft | 10 kts | 106° |
| 2026-04-28 17:09 | 52.31374 | 4.75924 | 2 ft | 14 kts | 171° |
| 2026-04-28 17:09 | 52.31298 | 4.75969 | 2 ft | 11 kts | 129° |
| 2026-04-28 17:09 | 52.31291 | 4.75989 | 2 ft | 4 kts | 119° |
| 2026-04-28 17:10 | 52.31291 | 4.75990 | 2 ft | 0 kts | 119° |
| 2026-04-28 17:10 | 52.31287 | 4.76000 | 2 ft | 4 kts | 120° |
| 2026-04-28 17:11 | 52.31282 | 4.76018 | 2 ft | 0 kts | 114° |
| 2026-04-28 17:11 | 52.31280 | 4.76024 | 2 ft | 0 kts | 116° |
| 2026-04-28 17:11 | 52.31268 | 4.76063 | 2 ft | 0 kts | 108° |